Time;durP1;ratioP1;P1;durP2;ratioP2;P2;SDS_P1;SDS_P2;PMS_P1;PMS_P2;Temp;Humidity;BMP_temperature;BMP_pressure;BME280_temperature;BME280_humidity;BME280_pressure;Samples;Min_cycle;Max_cycle;Signal;HPM_P1;HPM_P2
2023/02/16 00:01:22;;;;;;;21.00;6.53;;;;;;;3.73;100.00;102065.34;6253012;28;20056;-75
2023/02/16 00:04:25;;;;;;;13.25;6.53;;;;;;;3.68;100.00;102061.88;6271829;28;20545;-75
2023/02/16 00:07:26;;;;;;;14.00;5.65;;;;;;;3.74;100.00;102066.19;6277393;28;20357;-75
2023/02/16 00:10:32;;;;;;;18.63;7.68;;;;;;;3.72;100.00;102060.13;6264083;28;20422;-75
2023/02/16 00:13:46;;;;;;;19.83;7.15;;;;;;;3.74;100.00;102055.78;6252458;28;20049;-75
2023/02/16 00:16:49;;;;;;;18.60;6.88;;;;;;;3.71;100.00;102061.00;6252610;28;20060;-75
2023/02/16 00:19:50;;;;;;;15.20;7.00;;;;;;;3.72;100.00;102062.72;6269230;28;20053;-75
2023/02/16 00:22:52;;;;;;;15.85;7.15;;;;;;;3.66;100.00;102063.63;6276731;28;20353;-75
2023/02/16 00:25:53;;;;;;;20.52;7.78;;;;;;;3.72;100.00;102060.13;6266302;28;20517;-75
2023/02/16 00:28:57;;;;;;;15.25;6.38;;;;;;;3.72;100.00;102060.97;6260337;28;20049;-76
2023/02/16 00:32:03;;;;;;;17.90;6.93;;;;;;;3.72;100.00;102054.91;6260423;28;20052;-75
2023/02/16 00:35:05;;;;;;;24.00;7.63;;;;;;;3.71;100.00;102050.59;6270784;28;20052;-75
2023/02/16 00:38:06;;;;;;;16.20;7.25;;;;;;;3.69;100.00;102049.75;6270698;28;20068;-75
2023/02/16 00:41:49;;;;;;;16.60;6.75;;;;;;;3.66;100.00;102053.22;6268504;28;20049;-75
2023/02/16 00:44:42;;;;;;;19.83;7.43;;;;;;;3.71;100.00;102055.81;6261061;28;20350;-75
2023/02/16 00:47:47;;;;;;;19.98;6.93;;;;;;;3.70;100.00;102061.88;6275559;28;20056;-75
2023/02/16 00:50:48;;;;;;;14.35;6.50;;;;;;;3.70;100.00;102052.34;6276652;28;20049;-75
2023/02/16 00:53:50;;;;;;;15.88;6.88;;;;;;;3.68;100.00;102046.28;6268012;28;20359;-75
2023/02/16 00:56:51;;;;;;;17.88;6.82;;;;;;;3.66;100.00;102048.03;6268343;28;20049;-75
2023/02/16 01:00:00;;;;;;;20.20;7.60;;;;;;;3.63;100.00;102045.41;6276167;28;20456;-75
2023/02/16 01:03:06;;;;;;;13.82;6.57;;;;;;;3.63;100.00;102044.56;6276200;28;20360;-75
2023/02/16 01:12:46;;;;;;;19.25;8.48;;;;;;;3.65;100.00;102043.69;6276013;28;20124;-75
2023/02/16 01:15:47;;;;;;;21.55;8.43;;;;;;;3.65;100.00;102035.91;6266444;28;20053;-76
2023/02/16 01:18:51;;;;;;;21.02;7.13;;;;;;;3.61;100.00;102034.19;6251054;28;20052;-75
2023/02/16 01:21:52;;;;;;;21.38;7.45;;;;;;;3.64;100.00;102035.91;6267926;28;20046;-76
2023/02/16 01:24:53;;;;;;;20.95;8.05;;;;;;;3.63;100.00;102031.56;6275637;28;20057;-75
2023/02/16 01:27:55;;;;;;;19.35;6.72;;;;;;;3.65;100.00;102032.44;6275904;28;20048;-76
2023/02/16 01:30:56;;;;;;;25.35;8.00;;;;;;;3.66;100.00;102035.03;6275469;28;20056;-75
2023/02/16 01:33:59;;;;;;;20.17;7.50;;;;;;;3.67;100.00;102022.88;6275530;28;20049;-75
2023/02/16 01:37:00;;;;;;;20.75;7.97;;;;;;;3.62;100.00;102022.03;6275366;28;20053;-76
2023/02/16 01:40:02;;;;;;;18.08;7.80;;;;;;;3.58;100.00;102025.53;6275005;28;20455;-75
2023/02/16 01:43:12;;;;;;;20.88;7.90;;;;;;;3.62;100.00;102028.09;6275259;28;20055;-75
2023/02/16 01:46:18;;;;;;;17.80;8.35;;;;;;;3.64;100.00;102030.72;6271337;28;20453;-75
2023/02/16 01:49:21;;;;;;;21.23;8.13;;;;;;;3.74;100.00;102030.66;6275379;28;20421;-75
2023/02/16 01:52:30;;;;;;;20.33;8.52;;;;;;;3.79;100.00;102028.03;6275283;28;20041;-75
2023/02/16 01:55:36;;;;;;;18.58;7.90;;;;;;;3.89;100.00;102027.13;6274853;28;20346;-75
2023/02/16 01:58:42;;;;;;;22.15;8.98;;;;;;;3.85;100.00;102025.41;6266960;28;20060;-75
2023/02/16 02:01:52;;;;;;;20.80;7.95;;;;;;;3.84;100.00;102013.28;6275261;28;20441;-75
2023/02/16 02:08:31;;;;;;;17.63;7.13;;;;;;;3.74;100.00;102011.59;6258345;28;20049;-76
2023/02/16 02:11:36;;;;;;;18.42;8.43;;;;;;;3.72;100.00;102010.72;6261268;28;20052;-75
2023/02/16 02:14:39;;;;;;;16.33;7.32;;;;;;;3.74;100.00;102001.19;6273140;28;20052;-75
2023/02/16 02:17:41;;;;;;;21.95;8.88;;;;;;;3.81;100.00;102002.88;6267958;28;20120;-75
2023/02/16 02:24:52;;;;;;;21.13;8.02;;;;;;;3.83;100.00;101997.69;6266591;28;20045;-75
2023/02/16 02:27:59;;;;;;;22.13;8.50;;;;;;;3.90;100.00;101992.44;6266493;28;20056;-75
2023/02/16 02:31:10;;;;;;;21.35;8.73;;;;;;;3.92;100.00;101993.31;6265308;28;20049;-75
2023/02/16 02:34:22;;;;;;;25.80;9.32;;;;;;;4.06;100.00;101995.81;6266318;28;20048;-75
2023/02/16 02:37:34;;;;;;;22.70;8.10;;;;;;;4.06;100.00;101999.28;6267723;28;20618;-75
2023/02/16 02:40:51;;;;;;;22.58;8.48;;;;;;;4.16;100.00;101996.63;6266716;28;20045;-75
2023/02/16 02:43:59;;;;;;;22.45;9.50;;;;;;;4.07;100.00;101995.81;6266656;28;20064;-75
2023/02/16 02:47:01;;;;;;;26.73;8.65;;;;;;;4.12;100.00;102003.56;6274432;28;20053;-75
2023/02/16 02:50:02;;;;;;;22.85;10.05;;;;;;;4.08;100.00;101991.47;6266441;28;20049;-75
2023/02/16 02:53:06;;;;;;;28.08;9.13;;;;;;;4.11;100.00;101998.38;6278655;28;20044;-75
2023/02/16 03:02:57;;;;;;;27.42;9.70;;;;;;;4.02;100.00;101999.31;6270579;28;20437;-75
2023/02/16 03:06:03;;;;;;;20.25;9.02;;;;;;;3.94;100.00;102001.94;6254082;28;20054;-75
2023/02/16 03:09:10;;;;;;;21.65;9.05;;;;;;;3.99;100.00;101994.13;6262639;28;20519;-75
2023/02/16 03:15:35;;;;;;;25.35;9.27;;;;;;;3.97;100.00;101985.47;6270147;28;20468;-75
2023/02/16 03:32:03;;;;;;;19.73;8.88;;;;;;;3.75;100.00;101980.38;6278328;28;20049;-75
2023/02/16 03:35:05;;;;;;;22.65;9.18;;;;;;;3.66;100.00;101983.03;6268143;28;20061;-75
2023/02/16 03:38:07;;;;;;;23.83;9.32;;;;;;;3.64;100.00;101970.94;6256737;28;20053;-75
2023/02/16 03:41:08;;;;;;;28.58;10.02;;;;;;;3.64;100.00;101970.94;6270142;28;20053;-75
2023/02/16 03:44:10;;;;;;;27.48;10.50;;;;;;;3.61;100.00;101970.94;6275253;28;20514;-75
2023/02/16 03:47:13;;;;;;;26.85;9.68;;;;;;;3.65;100.00;101973.50;6261535;28;20056;-76
2023/02/16 03:50:14;;;;;;;28.70;11.23;;;;;;;3.64;100.00;101973.53;6272949;28;20041;-75
2023/02/16 03:53:17;;;;;;;27.48;10.18;;;;;;;3.60;100.00;101969.22;6269359;28;20052;-75
2023/02/16 03:56:18;;;;;;;25.65;10.02;;;;;;;3.61;100.00;101976.13;6275425;28;20049;-75
2023/02/16 03:59:20;;;;;;;28.13;11.35;;;;;;;3.62;100.00;101975.25;6261200;28;20052;-75
2023/02/16 04:02:23;;;;;;;20.95;9.07;;;;;;;3.63;100.00;101964.84;6277243;28;20044;-75
2023/02/16 04:05:25;;;;;;;23.70;10.23;;;;;;;3.61;100.00;101958.81;6272547;28;20365;-75
2023/02/16 04:08:26;;;;;;;28.23;11.57;;;;;;;3.63;100.00;101956.19;6265256;28;20045;-75
2023/02/16 04:14:47;;;;;;;26.65;9.75;;;;;;;3.69;100.00;101949.22;6269009;28;20045;-75
2023/02/16 04:17:49;;;;;;;28.48;9.23;;;;;;;3.67;100.00;101950.09;6268512;28;20049;-77
2023/02/16 04:20:51;;;;;;;38.15;11.02;;;;;;;3.63;100.00;101950.97;6277386;28;20044;-75
2023/02/16 04:23:52;;;;;;;26.05;9.73;;;;;;;3.57;100.00;101949.28;6275131;28;20053;-75
2023/02/16 04:26:53;;;;;;;27.27;10.80;;;;;;;3.56;100.00;101947.56;6260655;28;20053;-75
2023/02/16 04:29:55;;;;;;;33.50;11.20;;;;;;;3.47;100.00;101945.00;6276931;28;20045;-75
2023/02/16 04:32:58;;;;;;;21.77;9.75;;;;;;;3.45;100.00;101932.03;6267750;28;20048;-75
2023/02/16 04:35:59;;;;;;;26.25;10.80;;;;;;;3.43;100.00;101940.69;6261610;28;20124;-75
2023/02/16 04:39:01;;;;;;;28.02;10.02;;;;;;;3.42;100.00;101947.63;6267314;28;20054;-75
2023/02/16 04:42:02;;;;;;;30.67;11.05;;;;;;;3.49;100.00;101946.72;6261752;28;20056;-75
2023/02/16 04:45:04;;;;;;;24.55;10.55;;;;;;;3.56;100.00;101939.78;6271969;28;20049;-75
2023/02/16 04:48:07;;;;;;;25.88;9.63;;;;;;;3.53;100.00;101934.56;6276530;28;20053;-75
2023/02/16 04:51:08;;;;;;;24.80;9.88;;;;;;;3.47;100.00;101940.69;6267989;28;20041;-75
2023/02/16 04:54:09;;;;;;;24.85;9.88;;;;;;;3.49;100.00;101954.50;6276513;28;20435;-75
2023/02/16 04:57:12;;;;;;;28.50;9.88;;;;;;;3.46;100.00;101949.34;6261768;28;20487;-75
2023/02/16 05:00:14;;;;;;;27.90;11.52;;;;;;;3.51;100.00;101949.34;6256517;28;20045;-75
2023/02/16 05:03:16;;;;;;;26.48;10.85;;;;;;;3.61;100.00;101943.22;6271292;28;20124;-75
2023/02/16 05:06:18;;;;;;;28.17;11.32;;;;;;;3.61;100.00;101947.53;6271428;28;20052;-75
2023/02/16 05:09:19;;;;;;;27.58;10.57;;;;;;;3.65;100.00;101942.31;6236396;28;20037;-76
2023/02/16 05:15:40;;;;;;;23.55;11.40;;;;;;;3.70;100.00;101939.69;6255035;28;20045;-75
2023/02/16 05:18:42;;;;;;;30.85;11.60;;;;;;;3.67;100.00;101943.16;6233417;28;20049;-75
2023/02/16 05:21:44;;;;;;;27.02;11.57;;;;;;;3.71;100.00;101946.63;6256451;28;20240;-75
2023/02/16 05:24:45;;;;;;;32.45;11.65;;;;;;;3.68;100.00;101949.22;6255960;28;20044;-75
2023/02/16 05:27:46;;;;;;;30.63;11.00;;;;;;;3.65;100.00;101944.91;6259314;28;20049;-75
2023/02/16 05:30:48;;;;;;;27.50;11.52;;;;;;;3.67;100.00;101945.75;6240049;28;20045;-76
2023/02/16 05:33:50;;;;;;;27.25;11.75;;;;;;;3.63;100.00;101940.59;6232988;28;20045;-75
2023/02/16 05:36:52;;;;;;;26.83;11.07;;;;;;;3.70;100.00;101955.28;6240996;28;20052;-75
2023/02/16 05:39:53;;;;;;;26.02;10.80;;;;;;;3.73;100.00;101944.88;6250658;28;20045;-75
2023/02/16 05:42:55;;;;;;;31.75;12.20;;;;;;;3.76;100.00;101937.91;6257393;28;20044;-75
2023/02/16 05:45:56;;;;;;;30.83;10.52;;;;;;;3.80;100.00;101944.81;6256210;28;20052;-76
2023/02/16 05:48:59;;;;;;;23.90;11.73;;;;;;;3.85;100.00;101944.78;6243305;28;20049;-75
2023/02/16 05:52:01;;;;;;;31.95;11.85;;;;;;;3.83;100.00;101951.75;6250754;28;20057;-76
2023/02/16 05:55:02;;;;;;;31.08;11.20;;;;;;;3.88;100.00;101951.72;6237577;28;20048;-75
2023/02/16 05:58:03;;;;;;;29.58;12.43;;;;;;;3.81;100.00;101951.78;6255927;28;20061;-75
2023/02/16 06:01:05;;;;;;;26.35;11.30;;;;;;;3.85;100.00;101954.34;6265052;28;20052;-75
2023/02/16 06:04:09;;;;;;;32.10;13.75;;;;;;;3.88;100.00;101957.78;6254223;28;20046;-75
2023/02/16 06:07:10;;;;;;;25.95;11.25;;;;;;;3.93;100.00;101956.00;6271840;28;20049;-75
2023/02/16 06:10:12;;;;;;;34.38;12.65;;;;;;;3.94;100.00;101960.34;6257618;28;20053;-75
2023/02/16 06:13:13;;;;;;;29.80;11.65;;;;;;;3.93;100.00;101960.34;6261103;28;20353;-75
2023/02/16 06:16:14;;;;;;;36.90;11.63;;;;;;;3.92;100.00;101963.84;6267607;28;20456;-75
2023/02/16 06:19:18;;;;;;;28.70;11.90;;;;;;;3.93;100.00;101965.56;6272681;28;20053;-75
2023/02/16 06:22:20;;;;;;;28.42;11.73;;;;;;;3.87;100.00;101963.00;6274852;28;20041;-75
2023/02/16 06:25:21;;;;;;;30.67;12.32;;;;;;;3.88;100.00;101962.97;6268405;28;20437;-75
2023/02/16 06:28:23;;;;;;;29.23;11.88;;;;;;;3.91;100.00;101965.56;6273490;28;20048;-75
2023/02/16 06:31:25;;;;;;;29.83;12.75;;;;;;;3.93;100.00;101969.03;6277632;28;20048;-75
2023/02/16 06:34:27;;;;;;;28.48;11.13;;;;;;;3.92;100.00;101959.50;6276022;28;20056;-75
2023/02/16 06:37:29;;;;;;;30.88;12.90;;;;;;;3.93;100.00;101960.34;6279585;28;20045;-75
2023/02/16 06:40:30;;;;;;;30.98;11.75;;;;;;;4.00;100.00;101959.47;6268634;28;20052;-75
2023/02/16 06:43:32;;;;;;;30.20;12.68;;;;;;;4.04;100.00;101955.94;6267934;28;20349;-75
2023/02/16 06:46:34;;;;;;;24.27;10.70;;;;;;;4.07;100.00;101956.78;6273040;28;20045;-75
2023/02/16 06:49:37;;;;;;;31.20;11.77;;;;;;;4.15;100.00;101966.28;6273021;28;20353;-75
2023/02/16 06:52:38;;;;;;;30.27;11.45;;;;;;;4.16;100.00;101961.06;6254255;28;20103;-75
2023/02/16 06:55:39;;;;;;;28.48;11.55;;;;;;;4.16;100.00;101961.06;6254074;28;20051;-75
2023/02/16 06:58:41;;;;;;;24.70;10.98;;;;;;;4.12;100.00;101958.50;6254734;28;20128;-75
2023/02/16 07:01:43;;;;;;;32.65;13.40;;;;;;;4.13;100.00;101963.66;6253875;28;20124;-75
2023/02/16 07:04:45;;;;;;;30.30;13.13;;;;;;;4.14;100.00;101957.63;6261777;28;20132;-75
2023/02/16 07:07:47;;;;;;;34.03;12.32;;;;;;;4.14;100.00;101965.41;6270689;28;20056;-75
2023/02/16 07:10:48;;;;;;;28.00;12.05;;;;;;;4.14;100.00;101962.81;6277669;28;20053;-75
2023/02/16 07:13:50;;;;;;;37.33;12.82;;;;;;;4.20;100.00;101962.75;6278608;28;20045;-75
2023/02/16 07:16:51;;;;;;;30.02;11.02;;;;;;;4.17;100.00;101960.19;6270273;28;20353;-75
2023/02/16 07:19:54;;;;;;;28.58;11.25;;;;;;;4.20;100.00;101959.31;6261933;28;20476;-75
2023/02/16 07:22:55;;;;;;;29.77;11.30;;;;;;;4.27;100.00;101961.84;6253721;28;20350;-76
2023/02/16 07:25:56;;;;;;;27.25;12.07;;;;;;;4.32;100.00;101965.28;6262766;28;20057;-75
2023/02/16 07:28:58;;;;;;;30.02;11.27;;;;;;;4.46;100.00;101972.97;6278181;28;20057;-76
2023/02/16 07:31:59;;;;;;;31.67;12.80;;;;;;;4.56;100.00;101977.22;6270321;28;20045;-76
2023/02/16 07:35:02;;;;;;;31.20;12.23;;;;;;;4.64;100.00;101976.31;6278040;28;20049;-76
2023/02/16 07:38:04;;;;;;;32.35;13.55;;;;;;;4.69;100.00;101964.97;6277512;28;20056;-75
2023/02/16 07:41:06;;;;;;;33.30;10.70;;;;;;;4.72;100.00;101967.50;6268231;28;20102;-75
2023/02/16 07:44:07;;;;;;;29.27;11.10;;;;;;;4.84;100.00;101987.38;6275807;28;20053;-75
2023/02/16 07:47:09;;;;;;;34.42;12.85;;;;;;;4.90;100.00;101974.28;6255943;28;20052;-75
2023/02/16 07:50:12;;;;;;;32.72;13.07;;;;;;;5.00;100.00;101980.28;6263964;28;20440;-75
2023/02/16 07:53:14;;;;;;;25.50;10.40;;;;;;;5.00;100.00;101975.94;6261429;28;20045;-75
2023/02/16 07:56:19;;;;;;;33.50;11.73;;;;;;;5.03;100.00;101955.06;6253989;28;20042;-74
2023/02/16 07:59:21;;;;;;;30.83;11.90;;;;;;;5.08;100.00;101955.00;6262645;28;20053;-76
2023/02/16 08:02:23;;;;;;;28.20;11.05;;;;;;;5.13;100.00;101958.41;6268034;28;20049;-75
2023/02/16 08:05:26;;;;;;;30.08;13.07;;;;;;;5.14;100.00;101954.09;6266260;28;20056;-75
2023/02/16 08:08:27;;;;;;;30.08;12.63;;;;;;;5.25;100.00;101958.28;6254475;28;20354;-75
2023/02/16 08:11:29;;;;;;;28.90;11.30;;;;;;;5.21;100.00;101958.34;6266105;28;20048;-76
2023/02/16 08:14:30;;;;;;;27.73;10.70;;;;;;;5.25;100.00;101958.28;6263306;28;20052;-76
2023/02/16 08:17:31;;;;;;;29.13;11.95;;;;;;;5.23;100.00;101961.81;6271714;28;20047;-75
2023/02/16 08:20:34;;;;;;;27.33;11.30;;;;;;;5.21;100.00;101960.94;6276736;28;20045;-75
2023/02/16 08:23:36;;;;;;;25.33;10.23;;;;;;;5.29;100.00;101959.97;6264038;28;20349;-75
2023/02/16 08:26:41;;;;;;;29.83;12.05;;;;;;;5.28;100.00;101957.41;6261709;28;20464;-77
2023/02/16 08:29:43;;;;;;;20.40;9.35;;;;;;;5.31;100.00;101954.72;6266895;28;20096;-77
2023/02/16 08:32:45;;;;;;;38.30;11.55;;;;;;;5.33;100.00;101951.22;6263341;28;20500;-77
2023/02/16 08:35:48;;;;;;;24.92;11.38;;;;;;;5.45;100.00;101964.97;6260793;28;20333;-77
2023/02/16 08:38:51;;;;;;;23.30;10.88;;;;;;;5.46;100.00;101966.72;6260673;28;20057;-77
2023/02/16 08:41:53;;;;;;;23.88;10.98;;;;;;;5.44;100.00;101964.13;6253062;28;20103;-76
2023/02/16 08:44:54;;;;;;;26.73;10.73;;;;;;;5.51;100.00;101962.31;6265369;28;20052;-76
2023/02/16 08:47:56;;;;;;;32.05;12.73;;;;;;;5.55;100.00;101956.19;6255334;28;20049;-76
2023/02/16 08:50:59;;;;;;;30.58;11.20;;;;;;;5.56;100.00;101977.00;6267246;28;20056;-76
2023/02/16 08:54:01;;;;;;;29.67;12.13;;;;;;;5.62;100.00;101977.81;6265516;28;20051;-76
2023/02/16 08:57:02;;;;;;;35.90;12.90;;;;;;;5.63;100.00;101976.94;6267465;28;20045;-76
2023/02/16 09:03:24;;;;;;;31.17;10.90;;;;;;;5.70;100.00;101973.38;6255749;28;20045;-76
2023/02/16 09:06:27;;;;;;;33.22;10.93;;;;;;;5.77;100.00;101965.44;6275936;28;20463;-75
2023/02/16 09:09:29;;;;;;;33.17;12.23;;;;;;;5.83;100.00;101965.34;6262343;28;20050;-75
2023/02/16 09:12:31;;;;;;;29.92;11.10;;;;;;;5.86;100.00;101969.69;6260191;28;20069;-77
2023/02/16 09:15:33;;;;;;;27.00;11.20;;;;;;;5.92;100.00;101964.41;6256679;28;20353;-76
2023/02/16 09:18:35;;;;;;;27.75;10.60;;;;;;;6.00;100.00;101967.75;6261584;28;20049;-76
2023/02/16 09:21:38;;;;;;;27.13;10.65;;;;;;;6.06;100.00;101965.06;6265481;28;20433;-76
2023/02/16 09:24:39;;;;;;;26.45;11.85;;;;;;;6.09;100.00;101958.94;6275695;28;20425;-76
2023/02/16 09:27:42;;;;;;;29.25;11.02;;;;;;;6.19;100.00;101968.34;6260113;28;20056;-77
2023/02/16 09:30:43;;;;;;;27.58;11.27;;;;;;;6.27;100.00;101970.84;6259266;28;20056;-77
2023/02/16 09:33:45;;;;;;;32.13;11.77;;;;;;;6.31;100.00;101973.38;6250561;28;20402;-76
2023/02/16 09:36:49;;;;;;;33.35;12.15;;;;;;;6.36;100.00;101981.13;6267131;28;20065;-77
2023/02/16 09:39:50;;;;;;;26.55;11.40;;;;;;;6.55;100.00;101977.31;6250800;28;20050;-78
2023/02/16 09:43:03;;;;;;;29.65;11.23;;;;;;;6.57;100.00;101970.31;6259953;28;20053;-76
2023/02/16 09:46:10;;;;;;;27.65;11.13;;;;;;;6.67;100.00;101980.59;6275329;28;20044;-77
2023/02/16 09:49:23;;;;;;;26.63;11.52;;;;;;;6.74;100.00;101961.34;6258715;28;20052;-77
2023/02/16 09:52:35;;;;;;;27.17;10.90;;;;;;;6.78;100.00;101973.47;6275085;28;20394;-77
2023/02/16 09:55:45;;;;;;;35.80;12.48;;;;;;;6.83;100.00;101961.16;6251915;28;20180;-75
2023/02/16 09:58:50;;;;;;;29.65;11.50;;;;;;;7.01;100.00;101962.59;6250104;28;20464;-77
2023/02/16 10:02:00;;;;;;;27.73;11.65;;;;;;;6.96;100.00;101967.91;6266618;28;20397;-75
2023/02/16 10:05:19;;;;;;;27.73;12.02;;;;;;;7.04;100.00;101981.69;6261928;28;20401;-75
2023/02/16 10:08:27;;;;;;;30.23;10.73;;;;;;;7.05;100.00;101977.31;6251614;28;20353;-74
2023/02/16 10:11:45;;;;;;;27.70;11.30;;;;;;;7.13;100.00;101967.59;6253981;28;20132;-74
2023/02/16 10:14:49;;;;;;;31.75;11.10;;;;;;;7.18;100.00;101967.50;6250010;28;20057;-75
2023/02/16 10:17:55;;;;;;;29.60;10.43;;;;;;;7.15;100.00;101965.78;6256316;28;20053;-73
2023/02/16 10:21:00;;;;;;;26.83;11.00;;;;;;;7.15;100.00;101964.94;6258896;28;20049;-73
2023/02/16 10:24:06;;;;;;;27.15;11.88;;;;;;;7.16;100.00;101964.88;6251996;28;20398;-74
2023/02/16 10:27:14;;;;;;;27.23;11.13;;;;;;;7.16;100.00;101964.88;6264063;28;20052;-76
2023/02/16 10:30:18;;;;;;;29.80;12.82;;;;;;;7.31;100.00;101956.75;6266696;28;20351;-73
2023/02/16 10:33:31;;;;;;;30.70;13.50;;;;;;;7.28;100.00;101964.66;6258355;28;20048;-73
2023/02/16 10:36:52;;;;;;;28.15;13.10;;;;;;;7.30;100.00;101965.47;6249830;28;20046;-74
2023/02/16 10:40:18;;;;;;;37.92;13.82;;;;;;;7.37;100.00;101956.63;6249857;28;20069;-73
2023/02/16 10:43:39;;;;;;;27.00;11.70;;;;;;;7.40;100.00;101954.81;6254605;28;20041;-74
2023/02/16 10:46:44;;;;;;;26.70;11.70;;;;;;;7.50;100.00;101952.00;6274523;28;20048;-73
2023/02/16 10:49:46;;;;;;;33.25;12.07;;;;;;;7.47;100.00;101949.44;6262587;28;20049;-73
2023/02/16 10:52:49;;;;;;;31.65;12.10;;;;;;;7.54;100.00;101955.38;6266358;28;20452;-73
2023/02/16 10:55:51;;;;;;;24.65;11.30;;;;;;;7.58;100.00;101946.59;6274525;28;20056;-73
2023/02/16 10:58:53;;;;;;;26.92;11.32;;;;;;;7.59;100.00;101949.19;6274490;28;20045;-73
2023/02/16 11:01:57;;;;;;;27.67;12.68;;;;;;;7.57;100.00;101947.50;6274748;28;20049;-74
2023/02/16 11:04:59;;;;;;;30.67;12.10;;;;;;;7.65;100.00;101942.09;6274347;28;20049;-74
2023/02/16 11:08:01;;;;;;;28.80;9.93;;;;;;;7.79;100.00;101940.03;6256110;28;20054;-74
2023/02/16 11:11:11;;;;;;;29.08;11.85;;;;;;;7.78;100.00;101944.41;6249636;28;20049;-74
2023/02/16 11:14:22;;;;;;;34.28;13.57;;;;;;;7.87;100.00;101936.34;6238473;28;20058;-74
2023/02/16 11:17:24;;;;;;;23.92;11.25;;;;;;;8.01;100.00;101935.16;6260647;28;20051;-74
2023/02/16 11:20:30;;;;;;;30.38;12.07;;;;;;;8.13;100.00;101935.75;6258746;28;20064;-75
2023/02/16 11:23:33;;;;;;;27.80;12.25;;;;;;;8.36;100.00;101931.69;6261739;28;20342;-76
2023/02/16 11:26:36;;;;;;;28.38;11.23;;;;;;;8.46;100.00;101927.97;6252293;28;20042;-74
2023/02/16 11:29:37;;;;;;;28.42;11.93;;;;;;;8.47;100.00;101940.16;6252907;28;20041;-73
2023/02/16 11:32:38;;;;;;;22.38;11.45;;;;;;;8.55;100.00;101945.22;6253818;28;20078;-73
2023/02/16 11:35:42;;;;;;;27.10;11.70;;;;;;;8.61;100.00;101930.19;6253411;28;20048;-73
2023/02/16 11:38:56;;;;;;;26.60;10.70;;;;;;;8.69;100.00;101937.84;6253635;28;20445;-74
2023/02/16 11:42:02;;;;;;;29.17;12.15;;;;;;;8.69;100.00;101943.09;6270777;28;20055;-74
2023/02/16 11:45:05;;;;;;;26.73;12.32;;;;;;;8.76;100.00;101935.91;6277988;28;20048;-74
2023/02/16 11:48:11;;;;;;;46.78;17.45;;;;;;;8.80;100.00;101948.03;6277961;28;20049;-73
2023/02/16 11:51:15;;;;;;;28.30;12.68;;;;;;;8.93;100.00;101946.81;6277993;28;20045;-73
2023/02/16 11:54:17;;;;;;;31.13;11.48;;;;;;;8.87;100.00;101936.50;6278134;28;20124;-74
2023/02/16 11:57:27;;;;;;;27.05;11.27;;;;;;;8.85;100.00;101936.53;6277610;28;20083;-74
2023/02/16 12:00:30;;;;;;;;;;;;;;;8.68;100.00;101937.91;6278508;28;20425;-74
2023/02/16 12:03:52;;;;;;;26.67;11.55;;;;;;;8.59;100.00;101946.88;6277627;28;19964;-78
2023/02/16 12:07:07;;;;;;;35.75;12.50;;;;;;;8.52;100.00;101932.19;6277554;28;20044;-73
2023/02/16 12:10:11;;;;;;;24.23;11.77;;;;;;;8.52;100.00;101948.75;6277832;28;20049;-73
2023/02/16 12:13:21;;;;;;;27.60;10.68;;;;;;;8.48;100.00;101936.63;6272746;28;20045;-73
2023/02/16 12:16:30;;;;;;;23.65;10.65;;;;;;;8.45;100.00;101930.59;6273371;28;20041;-73
2023/02/16 12:19:39;;;;;;;27.25;11.55;;;;;;;8.48;100.00;101935.78;6277584;28;20174;-73
2023/02/16 12:22:46;;;;;;;30.58;12.25;;;;;;;8.35;100.00;101930.81;6270150;28;20049;-73
2023/02/16 12:25:56;;;;;;;26.92;10.77;;;;;;;8.40;100.00;101928.09;6276342;28;20052;-73
2023/02/16 12:29:10;;;;;;;27.42;11.30;;;;;;;8.36;100.00;101923.84;6277231;28;20338;-73
2023/02/16 12:32:25;;;;;;;31.67;10.88;;;;;;;8.31;100.00;101921.34;6282716;28;20365;-73
2023/02/16 12:35:45;;;;;;;34.30;11.68;;;;;;;8.29;100.00;101917.03;6253009;28;20096;-73
2023/02/16 12:38:55;;;;;;;31.65;11.88;;;;;;;8.32;100.00;101909.97;6259365;28;20057;-73
2023/02/16 12:42:13;;;;;;;26.85;11.68;;;;;;;8.37;100.00;101908.09;6274292;28;20144;-73
2023/02/16 12:45:21;;;;;;;35.38;11.73;;;;;;;8.45;100.00;101896.56;6261440;28;20044;-73
2023/02/16 12:48:35;;;;;;;31.33;12.32;;;;;;;8.45;100.00;101894.81;6257193;28;20051;-73
2023/02/16 12:51:40;;;;;;;36.92;12.52;;;;;;;8.48;100.00;101893.88;6261726;28;20052;-73
2023/02/16 12:54:47;;;;;;;25.30;11.45;;;;;;;8.62;100.00;101902.22;6259282;28;20429;-73
2023/02/16 12:57:55;;;;;;;31.17;11.40;;;;;;;8.78;100.00;101902.69;6258946;28;20057;-73
2023/02/16 13:01:02;;;;;;;27.65;12.27;;;;;;;8.89;100.00;101906.72;6253867;28;20053;-73
2023/02/16 13:04:14;;;;;;;23.58;11.30;;;;;;;8.90;100.00;101894.47;6262408;28;20049;-74
2023/02/16 13:07:22;;;;;;;21.80;9.90;;;;;;;9.02;100.00;101890.66;6264923;28;20175;-74
2023/02/16 13:10:30;;;;;;;26.85;11.05;;;;;;;8.98;100.00;101884.63;6260678;28;20041;-73
2023/02/16 13:13:35;;;;;;;27.60;11.43;;;;;;;9.05;100.00;101866.97;6264955;28;20041;-73
2023/02/16 13:16:44;;;;;;;24.45;11.63;;;;;;;9.11;100.00;101872.88;6259523;28;20052;-73
2023/02/16 13:19:46;;;;;;;28.52;11.95;;;;;;;9.18;100.00;101875.34;6259650;28;20053;-72
2023/02/16 13:23:20;;;;;;;28.75;13.18;;;;;;;9.03;100.00;101867.00;6276180;28;20045;-73
2023/02/16 13:26:48;;;;;;;31.55;12.13;;;;;;;9.03;100.00;101864.38;6269965;28;20361;-73
2023/02/16 13:30:29;;;;;;;30.35;12.32;;;;;;;9.04;100.00;101852.16;6266740;28;20052;-72
2023/02/16 13:33:50;;;;;;;23.95;11.50;;;;;;;9.09;100.00;101840.63;6272633;28;20048;-73
2023/02/16 13:37:17;;;;;;;28.83;12.35;;;;;;;9.26;100.00;101826.13;6275002;28;20057;-73
2023/02/16 13:40:39;;;;;;;30.90;12.02;;;;;;;9.32;100.00;101824.19;6275319;28;20336;-72
2023/02/16 13:43:43;;;;;;;26.92;11.25;;;;;;;9.49;100.00;101813.13;6274760;28;20044;-73
2023/02/16 13:46:49;;;;;;;34.15;12.75;;;;;;;9.52;100.00;101810.44;6274549;28;20048;-73
2023/02/16 13:49:57;;;;;;;36.90;12.05;;;;;;;9.62;100.00;101811.84;6275484;28;20048;-74
2023/02/16 13:53:11;;;;;;;31.63;13.83;;;;;;;9.63;100.00;101796.97;6268025;28;20049;-73
2023/02/16 13:56:21;;;;;;;33.53;12.95;;;;;;;9.54;100.00;101800.75;6274927;28;20444;-74
2023/02/16 14:00:03;;;;;;;28.90;11.95;;;;;;;9.48;100.00;101800.94;6275294;28;20433;-73
2023/02/16 14:03:10;;;;;;;26.00;11.95;;;;;;;9.42;100.00;101801.13;6274860;28;20049;-74
2023/02/16 14:06:33;;;;;;;29.70;11.82;;;;;;;9.33;100.00;101804.06;6269707;28;20049;-74
2023/02/16 14:09:48;;;;;;;30.08;12.55;;;;;;;9.27;100.00;101805.09;6268385;28;20050;-73
2023/02/16 14:12:51;;;;;;;25.17;12.57;;;;;;;9.27;100.00;101804.25;6262022;28;20099;-74
2023/02/16 14:15:54;;;;;;;29.70;12.32;;;;;;;9.20;100.00;101810.56;6258517;28;20512;-74
2023/02/16 14:18:58;;;;;;;26.30;12.43;;;;;;;9.14;100.00;101809.00;6255928;28;20045;-73
2023/02/16 14:22:10;;;;;;;27.15;12.23;;;;;;;9.11;100.00;101809.94;6257258;28;20576;-72
2023/02/16 14:25:35;;;;;;;27.63;11.98;;;;;;;9.09;100.00;101798.66;6264986;28;20459;-73
2023/02/16 14:29:16;;;;;;;30.33;12.95;;;;;;;9.12;100.00;101802.94;6253833;28;20056;-73
2023/02/16 14:32:25;;;;;;;26.20;11.77;;;;;;;9.11;100.00;101799.47;6270030;28;20047;-73
2023/02/16 14:35:29;;;;;;;30.42;12.15;;;;;;;8.98;100.00;101808.59;6274639;28;20048;-73
2023/02/16 14:38:34;;;;;;;27.80;11.80;;;;;;;8.94;100.00;101812.22;6274552;28;20116;-73
2023/02/16 14:41:37;;;;;;;29.88;12.68;;;;;;;8.91;100.00;101811.47;6274483;28;20356;-72
2023/02/16 14:44:53;;;;;;;26.40;11.45;;;;;;;8.87;100.00;101818.56;6260391;28;20041;-72
2023/02/16 14:48:07;;;;;;;27.13;11.80;;;;;;;8.92;100.00;101829.75;6270858;28;20357;-73
2023/02/16 14:51:34;;;;;;;27.33;12.15;;;;;;;8.82;100.00;101833.56;6268021;28;20055;-74
2023/02/16 14:54:57;;;;;;;32.92;12.65;;;;;;;8.77;100.00;101827.59;6268682;28;20037;-74